sensor_id;sensor_type;location;lat;lon;timestamp;P1;durP1;ratioP1;P2;durP2;ratioP2
5904;SDS011;2978;42.012;24.880;2023-01-28T00:01:19;1.77;;;1.67;;
5904;SDS011;2978;42.012;24.880;2023-01-28T00:03:48;2.53;;;1.97;;
5904;SDS011;2978;42.012;24.880;2023-01-28T00:06:15;1.83;;;1.73;;
5904;SDS011;2978;42.012;24.880;2023-01-28T00:08:40;2.30;;;2.10;;
5904;SDS011;2978;42.012;24.880;2023-01-28T00:11:07;1.93;;;1.70;;
5904;SDS011;2978;42.012;24.880;2023-01-28T00:13:34;1.87;;;1.77;;
5904;SDS011;2978;42.012;24.880;2023-01-28T00:16:01;2.10;;;1.93;;
5904;SDS011;2978;42.012;24.880;2023-01-28T00:18:29;2.57;;;2.37;;
5904;SDS011;2978;42.012;24.880;2023-01-28T00:23:30;1.70;;;1.60;;
5904;SDS011;2978;42.012;24.880;2023-01-28T00:26:00;2.47;;;1.90;;
5904;SDS011;2978;42.012;24.880;2023-01-28T00:28:29;2.20;;;2.00;;
5904;SDS011;2978;42.012;24.880;2023-01-28T00:30:54;3.50;;;2.10;;
5904;SDS011;2978;42.012;24.880;2023-01-28T00:33:20;2.40;;;2.07;;
5904;SDS011;2978;42.012;24.880;2023-01-28T00:35:46;1.90;;;1.80;;
5904;SDS011;2978;42.012;24.880;2023-01-28T00:38:11;1.90;;;1.80;;
5904;SDS011;2978;42.012;24.880;2023-01-28T00:40:37;2.33;;;2.13;;
5904;SDS011;2978;42.012;24.880;2023-01-28T00:43:02;2.20;;;2.00;;
5904;SDS011;2978;42.012;24.880;2023-01-28T00:45:28;2.43;;;2.23;;
5904;SDS011;2978;42.012;24.880;2023-01-28T00:47:54;2.03;;;1.83;;
5904;SDS011;2978;42.012;24.880;2023-01-28T00:50:19;2.90;;;2.13;;
5904;SDS011;2978;42.012;24.880;2023-01-28T00:52:45;2.27;;;2.10;;
5904;SDS011;2978;42.012;24.880;2023-01-28T00:55:12;2.30;;;2.10;;
5904;SDS011;2978;42.012;24.880;2023-01-28T00:57:37;2.40;;;2.20;;
5904;SDS011;2978;42.012;24.880;2023-01-28T01:00:03;2.47;;;2.27;;
5904;SDS011;2978;42.012;24.880;2023-01-28T01:02:30;2.20;;;2.10;;
5904;SDS011;2978;42.012;24.880;2023-01-28T01:04:55;2.23;;;2.03;;
5904;SDS011;2978;42.012;24.880;2023-01-28T01:07:24;2.40;;;2.20;;
5904;SDS011;2978;42.012;24.880;2023-01-28T01:09:59;3.73;;;2.40;;
5904;SDS011;2978;42.012;24.880;2023-01-28T01:12:27;3.30;;;3.00;;
5904;SDS011;2978;42.012;24.880;2023-01-28T01:14:52;2.20;;;2.10;;
5904;SDS011;2978;42.012;24.880;2023-01-28T01:17:19;2.30;;;2.10;;
5904;SDS011;2978;42.012;24.880;2023-01-28T01:19:45;2.30;;;2.10;;
5904;SDS011;2978;42.012;24.880;2023-01-28T01:22:11;1.90;;;1.80;;
5904;SDS011;2978;42.012;24.880;2023-01-28T01:24:36;1.90;;;1.80;;
5904;SDS011;2978;42.012;24.880;2023-01-28T01:27:02;2.50;;;2.30;;
5904;SDS011;2978;42.012;24.880;2023-01-28T01:29:30;2.10;;;1.90;;
5904;SDS011;2978;42.012;24.880;2023-01-28T01:31:57;2.27;;;2.07;;
5904;SDS011;2978;42.012;24.880;2023-01-28T01:34:23;2.20;;;2.00;;
5904;SDS011;2978;42.012;24.880;2023-01-28T01:36:49;2.60;;;2.40;;
5904;SDS011;2978;42.012;24.880;2023-01-28T01:39:14;1.90;;;1.80;;
5904;SDS011;2978;42.012;24.880;2023-01-28T01:41:40;2.50;;;2.30;;
5904;SDS011;2978;42.012;24.880;2023-01-28T01:44:05;1.67;;;1.57;;
5904;SDS011;2978;42.012;24.880;2023-01-28T01:46:32;2.03;;;1.93;;
5904;SDS011;2978;42.012;24.880;2023-01-28T01:49:23;2.00;;;1.90;;
5904;SDS011;2978;42.012;24.880;2023-01-28T01:51:52;1.80;;;1.70;;
5904;SDS011;2978;42.012;24.880;2023-01-28T01:54:22;2.23;;;2.07;;
5904;SDS011;2978;42.012;24.880;2023-01-28T01:56:49;1.70;;;1.60;;
5904;SDS011;2978;42.012;24.880;2023-01-28T01:59:17;1.87;;;1.67;;
5904;SDS011;2978;42.012;24.880;2023-01-28T02:01:48;1.97;;;1.70;;
5904;SDS011;2978;42.012;24.880;2023-01-28T02:04:18;1.60;;;1.50;;
5904;SDS011;2978;42.012;24.880;2023-01-28T02:06:49;1.80;;;1.50;;
5904;SDS011;2978;42.012;24.880;2023-01-28T02:09:22;1.70;;;1.60;;
5904;SDS011;2978;42.012;24.880;2023-01-28T02:11:50;1.67;;;1.57;;
5904;SDS011;2978;42.012;24.880;2023-01-28T02:14:21;1.70;;;1.43;;
5904;SDS011;2978;42.012;24.880;2023-01-28T02:16:50;1.60;;;1.50;;
5904;SDS011;2978;42.012;24.880;2023-01-28T02:19:15;1.60;;;1.50;;
5904;SDS011;2978;42.012;24.880;2023-01-28T02:21:55;1.60;;;1.50;;
5904;SDS011;2978;42.012;24.880;2023-01-28T02:30:39;2.10;;;1.90;;
5904;SDS011;2978;42.012;24.880;2023-01-28T02:33:33;1.87;;;1.63;;
5904;SDS011;2978;42.012;24.880;2023-01-28T02:36:08;1.67;;;1.57;;
5904;SDS011;2978;42.012;24.880;2023-01-28T02:38:41;1.83;;;1.73;;
5904;SDS011;2978;42.012;24.880;2023-01-28T02:41:14;1.87;;;1.50;;
5904;SDS011;2978;42.012;24.880;2023-01-28T02:43:45;1.57;;;1.47;;
5904;SDS011;2978;42.012;24.880;2023-01-28T02:46:21;1.67;;;1.57;;
5904;SDS011;2978;42.012;24.880;2023-01-28T02:49:07;3.23;;;1.73;;
5904;SDS011;2978;42.012;24.880;2023-01-28T02:54:29;1.87;;;1.70;;
5904;SDS011;2978;42.012;24.880;2023-01-28T03:07:26;1.83;;;1.53;;
5904;SDS011;2978;42.012;24.880;2023-01-28T03:09:56;1.50;;;1.40;;
5904;SDS011;2978;42.012;24.880;2023-01-28T03:12:26;1.57;;;1.47;;
5904;SDS011;2978;42.012;24.880;2023-01-28T03:15:19;1.53;;;1.27;;
5904;SDS011;2978;42.012;24.880;2023-01-28T03:18:10;1.40;;;1.30;;
5904;SDS011;2978;42.012;24.880;2023-01-28T03:21:08;1.30;;;1.20;;
5904;SDS011;2978;42.012;24.880;2023-01-28T03:24:02;1.40;;;1.30;;
5904;SDS011;2978;42.012;24.880;2023-01-28T03:26:53;2.47;;;1.80;;
5904;SDS011;2978;42.012;24.880;2023-01-28T03:29:43;1.30;;;1.20;;
5904;SDS011;2978;42.012;24.880;2023-01-28T03:32:28;1.30;;;1.20;;
5904;SDS011;2978;42.012;24.880;2023-01-28T03:35:13;1.63;;;1.53;;
5904;SDS011;2978;42.012;24.880;2023-01-28T03:37:58;1.37;;;1.30;;
5904;SDS011;2978;42.012;24.880;2023-01-28T03:40:52;1.40;;;1.30;;
5904;SDS011;2978;42.012;24.880;2023-01-28T03:43:20;1.50;;;1.40;;
5904;SDS011;2978;42.012;24.880;2023-01-28T03:45:46;1.40;;;1.30;;
5904;SDS011;2978;42.012;24.880;2023-01-28T03:48:15;1.40;;;1.30;;
5904;SDS011;2978;42.012;24.880;2023-01-28T03:50:45;1.10;;;1.10;;
5904;SDS011;2978;42.012;24.880;2023-01-28T03:53:12;1.43;;;1.23;;
5904;SDS011;2978;42.012;24.880;2023-01-28T03:55:39;1.00;;;1.00;;
5904;SDS011;2978;42.012;24.880;2023-01-28T03:58:05;2.10;;;1.60;;
5904;SDS011;2978;42.012;24.880;2023-01-28T04:00:31;1.40;;;1.30;;
5904;SDS011;2978;42.012;24.880;2023-01-28T04:03:06;1.50;;;1.37;;
5904;SDS011;2978;42.012;24.880;2023-01-28T04:05:40;1.50;;;1.40;;
5904;SDS011;2978;42.012;24.880;2023-01-28T04:08:09;1.63;;;1.50;;
5904;SDS011;2978;42.012;24.880;2023-01-28T04:10:34;1.90;;;1.80;;
5904;SDS011;2978;42.012;24.880;2023-01-28T04:12:59;1.57;;;1.47;;
5904;SDS011;2978;42.012;24.880;2023-01-28T04:15:25;1.77;;;1.67;;
5904;SDS011;2978;42.012;24.880;2023-01-28T04:17:50;2.00;;;1.83;;
5904;SDS011;2978;42.012;24.880;2023-01-28T04:20:16;1.40;;;1.30;;
5904;SDS011;2978;42.012;24.880;2023-01-28T04:22:41;1.73;;;1.63;;
5904;SDS011;2978;42.012;24.880;2023-01-28T04:25:07;1.97;;;1.40;;
5904;SDS011;2978;42.012;24.880;2023-01-28T04:27:33;1.53;;;1.43;;
5904;SDS011;2978;42.012;24.880;2023-01-28T04:29:58;1.83;;;1.73;;
5904;SDS011;2978;42.012;24.880;2023-01-28T04:32:24;1.63;;;1.53;;
5904;SDS011;2978;42.012;24.880;2023-01-28T04:34:49;1.53;;;1.43;;
5904;SDS011;2978;42.012;24.880;2023-01-28T04:37:14;2.30;;;1.90;;
5904;SDS011;2978;42.012;24.880;2023-01-28T04:39:40;1.47;;;1.37;;
5904;SDS011;2978;42.012;24.880;2023-01-28T04:42:05;1.57;;;1.47;;
5904;SDS011;2978;42.012;24.880;2023-01-28T04:44:31;1.63;;;1.53;;
5904;SDS011;2978;42.012;24.880;2023-01-28T04:46:56;1.50;;;1.40;;
5904;SDS011;2978;42.012;24.880;2023-01-28T04:49:21;1.60;;;1.50;;
5904;SDS011;2978;42.012;24.880;2023-01-28T04:51:47;1.53;;;1.43;;
5904;SDS011;2978;42.012;24.880;2023-01-28T04:54:12;4.60;;;1.60;;
5904;SDS011;2978;42.012;24.880;2023-01-28T04:56:37;1.43;;;1.33;;
5904;SDS011;2978;42.012;24.880;2023-01-28T04:59:03;2.93;;;1.97;;
5904;SDS011;2978;42.012;24.880;2023-01-28T05:01:28;1.20;;;1.20;;
5904;SDS011;2978;42.012;24.880;2023-01-28T05:03:54;1.57;;;1.47;;
5904;SDS011;2978;42.012;24.880;2023-01-28T05:06:19;1.50;;;1.40;;
5904;SDS011;2978;42.012;24.880;2023-01-28T05:08:45;1.50;;;1.40;;
5904;SDS011;2978;42.012;24.880;2023-01-28T05:11:11;1.90;;;1.70;;
5904;SDS011;2978;42.012;24.880;2023-01-28T05:13:37;1.70;;;1.60;;
5904;SDS011;2978;42.012;24.880;2023-01-28T05:16:03;1.60;;;1.50;;
5904;SDS011;2978;42.012;24.880;2023-01-28T05:18:29;2.50;;;1.93;;
5904;SDS011;2978;42.012;24.880;2023-01-28T05:20:55;1.67;;;1.57;;
5904;SDS011;2978;42.012;24.880;2023-01-28T05:23:20;5.57;;;2.17;;
5904;SDS011;2978;42.012;24.880;2023-01-28T05:25:46;1.60;;;1.50;;
5904;SDS011;2978;42.012;24.880;2023-01-28T05:28:11;2.10;;;1.80;;
5904;SDS011;2978;42.012;24.880;2023-01-28T05:30:37;1.60;;;1.50;;
5904;SDS011;2978;42.012;24.880;2023-01-28T05:33:03;2.10;;;1.77;;
5904;SDS011;2978;42.012;24.880;2023-01-28T05:35:28;2.53;;;1.77;;
5904;SDS011;2978;42.012;24.880;2023-01-28T05:37:54;2.37;;;2.17;;
5904;SDS011;2978;42.012;24.880;2023-01-28T05:40:19;1.80;;;1.70;;
5904;SDS011;2978;42.012;24.880;2023-01-28T05:42:45;1.70;;;1.60;;
5904;SDS011;2978;42.012;24.880;2023-01-28T05:45:10;1.67;;;1.53;;
5904;SDS011;2978;42.012;24.880;2023-01-28T05:47:36;1.80;;;1.70;;
5904;SDS011;2978;42.012;24.880;2023-01-28T05:50:02;1.70;;;1.60;;
5904;SDS011;2978;42.012;24.880;2023-01-28T05:52:27;1.47;;;1.27;;
5904;SDS011;2978;42.012;24.880;2023-01-28T05:57:13;5.07;;;1.70;;
5904;SDS011;2978;42.012;24.880;2023-01-28T05:59:38;1.63;;;1.53;;
5904;SDS011;2978;42.012;24.880;2023-01-28T06:02:04;1.60;;;1.50;;
5904;SDS011;2978;42.012;24.880;2023-01-28T06:04:29;3.40;;;2.00;;
5904;SDS011;2978;42.012;24.880;2023-01-28T06:06:55;1.83;;;1.40;;
5904;SDS011;2978;42.012;24.880;2023-01-28T06:09:20;1.90;;;1.70;;
5904;SDS011;2978;42.012;24.880;2023-01-28T06:11:45;2.67;;;1.60;;
5904;SDS011;2978;42.012;24.880;2023-01-28T06:14:11;4.33;;;1.70;;
5904;SDS011;2978;42.012;24.880;2023-01-28T06:16:36;2.00;;;1.80;;
5904;SDS011;2978;42.012;24.880;2023-01-28T06:19:02;1.70;;;1.60;;
5904;SDS011;2978;42.012;24.880;2023-01-28T06:21:27;1.53;;;1.43;;
5904;SDS011;2978;42.012;24.880;2023-01-28T06:23:53;1.53;;;1.43;;
5904;SDS011;2978;42.012;24.880;2023-01-28T06:26:18;1.43;;;1.33;;
5904;SDS011;2978;42.012;24.880;2023-01-28T06:28:44;1.63;;;1.53;;
5904;SDS011;2978;42.012;24.880;2023-01-28T06:31:09;2.43;;;2.00;;
5904;SDS011;2978;42.012;24.880;2023-01-28T06:33:35;7.97;;;2.50;;
5904;SDS011;2978;42.012;24.880;2023-01-28T06:36:03;3.50;;;2.80;;
5904;SDS011;2978;42.012;24.880;2023-01-28T06:38:48;6.90;;;2.57;;
5904;SDS011;2978;42.012;24.880;2023-01-28T06:41:13;1.73;;;1.63;;
5904;SDS011;2978;42.012;24.880;2023-01-28T06:43:38;2.20;;;2.00;;
5904;SDS011;2978;42.012;24.880;2023-01-28T06:46:04;2.67;;;2.47;;
5904;SDS011;2978;42.012;24.880;2023-01-28T06:48:30;2.27;;;2.07;;
5904;SDS011;2978;42.012;24.880;2023-01-28T06:50:55;2.67;;;2.40;;
5904;SDS011;2978;42.012;24.880;2023-01-28T06:53:20;1.67;;;1.57;;
5904;SDS011;2978;42.012;24.880;2023-01-28T06:58:51;7.30;;;1.57;;
5904;SDS011;2978;42.012;24.880;2023-01-28T07:01:16;4.20;;;1.80;;
5904;SDS011;2978;42.012;24.880;2023-01-28T07:03:42;1.80;;;1.70;;
5904;SDS011;2978;42.012;24.880;2023-01-28T07:06:07;2.60;;;2.00;;
5904;SDS011;2978;42.012;24.880;2023-01-28T07:08:33;3.20;;;2.70;;
5904;SDS011;2978;42.012;24.880;2023-01-28T07:10:59;3.70;;;2.80;;
5904;SDS011;2978;42.012;24.880;2023-01-28T07:13:24;1.70;;;1.60;;
5904;SDS011;2978;42.012;24.880;2023-01-28T07:15:50;1.70;;;1.60;;
5904;SDS011;2978;42.012;24.880;2023-01-28T07:18:16;2.00;;;1.90;;
5904;SDS011;2978;42.012;24.880;2023-01-28T07:20:41;1.90;;;1.80;;
5904;SDS011;2978;42.012;24.880;2023-01-28T07:23:07;2.73;;;2.47;;
5904;SDS011;2978;42.012;24.880;2023-01-28T07:25:32;2.60;;;1.70;;
5904;SDS011;2978;42.012;24.880;2023-01-28T07:27:58;3.33;;;2.40;;
5904;SDS011;2978;42.012;24.880;2023-01-28T07:30:23;2.30;;;2.10;;
5904;SDS011;2978;42.012;24.880;2023-01-28T07:32:55;10.10;;;2.10;;
5904;SDS011;2978;42.012;24.880;2023-01-28T07:35:22;4.20;;;2.60;;
5904;SDS011;2978;42.012;24.880;2023-01-28T07:37:52;3.40;;;2.43;;
5904;SDS011;2978;42.012;24.880;2023-01-28T07:40:18;2.30;;;2.10;;
5904;SDS011;2978;42.012;24.880;2023-01-28T07:42:44;4.27;;;2.87;;
5904;SDS011;2978;42.012;24.880;2023-01-28T07:45:10;3.00;;;2.50;;
5904;SDS011;2978;42.012;24.880;2023-01-28T07:47:35;2.97;;;2.20;;
5904;SDS011;2978;42.012;24.880;2023-01-28T07:50:01;3.50;;;2.27;;
5904;SDS011;2978;42.012;24.880;2023-01-28T07:52:26;2.50;;;2.27;;
5904;SDS011;2978;42.012;24.880;2023-01-28T07:54:52;4.13;;;1.70;;
5904;SDS011;2978;42.012;24.880;2023-01-28T07:57:17;2.20;;;1.97;;
5904;SDS011;2978;42.012;24.880;2023-01-28T07:59:47;2.83;;;2.10;;
5904;SDS011;2978;42.012;24.880;2023-01-28T08:02:14;3.43;;;2.33;;
5904;SDS011;2978;42.012;24.880;2023-01-28T08:04:41;2.20;;;1.83;;
5904;SDS011;2978;42.012;24.880;2023-01-28T08:07:06;2.20;;;2.00;;
5904;SDS011;2978;42.012;24.880;2023-01-28T08:09:32;2.67;;;1.80;;
5904;SDS011;2978;42.012;24.880;2023-01-28T08:12:00;6.03;;;2.50;;
5904;SDS011;2978;42.012;24.880;2023-01-28T08:14:26;2.20;;;2.00;;
5904;SDS011;2978;42.012;24.880;2023-01-28T08:16:52;2.03;;;1.50;;
5904;SDS011;2978;42.012;24.880;2023-01-28T08:19:17;2.80;;;2.00;;
5904;SDS011;2978;42.012;24.880;2023-01-28T08:21:46;4.70;;;4.10;;
5904;SDS011;2978;42.012;24.880;2023-01-28T08:24:12;6.30;;;5.43;;
5904;SDS011;2978;42.012;24.880;2023-01-28T08:26:37;3.50;;;3.20;;
5904;SDS011;2978;42.012;24.880;2023-01-28T08:29:02;2.63;;;2.17;;
5904;SDS011;2978;42.012;24.880;2023-01-28T08:31:28;4.37;;;2.10;;
5904;SDS011;2978;42.012;24.880;2023-01-28T08:33:53;2.23;;;1.80;;
5904;SDS011;2978;42.012;24.880;2023-01-28T08:36:19;2.33;;;2.13;;
5904;SDS011;2978;42.012;24.880;2023-01-28T08:38:44;2.57;;;2.13;;
5904;SDS011;2978;42.012;24.880;2023-01-28T08:41:09;3.93;;;2.80;;
5904;SDS011;2978;42.012;24.880;2023-01-28T08:43:35;1.70;;;1.60;;
5904;SDS011;2978;42.012;24.880;2023-01-28T08:46:00;2.97;;;2.67;;
5904;SDS011;2978;42.012;24.880;2023-01-28T08:48:26;3.87;;;3.47;;
5904;SDS011;2978;42.012;24.880;2023-01-28T08:50:51;3.47;;;2.80;;
5904;SDS011;2978;42.012;24.880;2023-01-28T08:53:18;4.40;;;1.77;;
5904;SDS011;2978;42.012;24.880;2023-01-28T08:55:45;5.50;;;2.00;;
5904;SDS011;2978;42.012;24.880;2023-01-28T08:58:11;1.97;;;1.80;;
5904;SDS011;2978;42.012;24.880;2023-01-28T09:00:38;3.00;;;2.60;;
5904;SDS011;2978;42.012;24.880;2023-01-28T09:03:04;3.10;;;2.27;;
5904;SDS011;2978;42.012;24.880;2023-01-28T09:05:30;2.50;;;1.80;;
5904;SDS011;2978;42.012;24.880;2023-01-28T09:08:00;2.90;;;2.53;;
5904;SDS011;2978;42.012;24.880;2023-01-28T09:10:26;5.53;;;3.50;;
5904;SDS011;2978;42.012;24.880;2023-01-28T09:12:52;6.27;;;3.43;;
5904;SDS011;2978;42.012;24.880;2023-01-28T09:15:17;7.27;;;3.30;;
5904;SDS011;2978;42.012;24.880;2023-01-28T09:17:43;3.33;;;2.70;;
5904;SDS011;2978;42.012;24.880;2023-01-28T09:20:08;3.33;;;2.57;;
5904;SDS011;2978;42.012;24.880;2023-01-28T09:22:35;5.67;;;3.67;;
5904;SDS011;2978;42.012;24.880;2023-01-28T09:25:01;2.17;;;1.97;;
5904;SDS011;2978;42.012;24.880;2023-01-28T09:27:26;7.40;;;3.00;;
5904;SDS011;2978;42.012;24.880;2023-01-28T09:29:51;3.13;;;2.17;;
5904;SDS011;2978;42.012;24.880;2023-01-28T09:32:17;2.20;;;2.10;;
5904;SDS011;2978;42.012;24.880;2023-01-28T09:34:42;2.50;;;1.70;;
5904;SDS011;2978;42.012;24.880;2023-01-28T09:37:08;4.83;;;2.10;;
5904;SDS011;2978;42.012;24.880;2023-01-28T09:39:35;5.10;;;1.77;;
5904;SDS011;2978;42.012;24.880;2023-01-28T09:45:14;3.80;;;2.17;;
5904;SDS011;2978;42.012;24.880;2023-01-28T09:47:44;3.27;;;2.97;;
5904;SDS011;2978;42.012;24.880;2023-01-28T09:52:48;7.10;;;2.90;;
5904;SDS011;2978;42.012;24.880;2023-01-28T09:57:52;5.60;;;3.23;;
5904;SDS011;2978;42.012;24.880;2023-01-28T10:00:23;4.17;;;2.43;;
5904;SDS011;2978;42.012;24.880;2023-01-28T10:06:08;5.03;;;3.00;;
5904;SDS011;2978;42.012;24.880;2023-01-28T10:11:39;5.10;;;3.20;;
5904;SDS011;2978;42.012;24.880;2023-01-28T10:19:32;6.83;;;4.70;;
5904;SDS011;2978;42.012;24.880;2023-01-28T10:22:03;4.57;;;3.40;;
5904;SDS011;2978;42.012;24.880;2023-01-28T10:24:35;3.73;;;2.97;;
5904;SDS011;2978;42.012;24.880;2023-01-28T10:27:15;11.10;;;4.50;;
5904;SDS011;2978;42.012;24.880;2023-01-28T10:29:45;4.13;;;2.40;;
5904;SDS011;2978;42.012;24.880;2023-01-28T10:35:00;2.30;;;2.10;;
5904;SDS011;2978;42.012;24.880;2023-01-28T10:37:28;3.10;;;2.77;;
5904;SDS011;2978;42.012;24.880;2023-01-28T10:39:57;3.40;;;2.77;;
5904;SDS011;2978;42.012;24.880;2023-01-28T10:42:31;3.70;;;2.20;;
5904;SDS011;2978;42.012;24.880;2023-01-28T10:45:06;3.67;;;1.83;;
5904;SDS011;2978;42.012;24.880;2023-01-28T10:50:22;3.30;;;2.30;;
5904;SDS011;2978;42.012;24.880;2023-01-28T10:52:52;2.33;;;2.00;;
5904;SDS011;2978;42.012;24.880;2023-01-28T10:55:20;3.20;;;2.43;;
5904;SDS011;2978;42.012;24.880;2023-01-28T10:57:46;3.27;;;2.50;;
5904;SDS011;2978;42.012;24.880;2023-01-28T11:00:25;2.60;;;2.40;;
5904;SDS011;2978;42.012;24.880;2023-01-28T11:02:54;4.00;;;1.63;;
5904;SDS011;2978;42.012;24.880;2023-01-28T11:05:23;3.37;;;2.23;;
5904;SDS011;2978;42.012;24.880;2023-01-28T11:08:13;10.00;;;3.07;;
5904;SDS011;2978;42.012;24.880;2023-01-28T11:10:41;2.70;;;2.50;;
5904;SDS011;2978;42.012;24.880;2023-01-28T11:13:20;5.07;;;2.60;;
5904;SDS011;2978;42.012;24.880;2023-01-28T11:18:17;8.13;;;2.30;;
5904;SDS011;2978;42.012;24.880;2023-01-28T11:20:59;11.30;;;2.90;;
5904;SDS011;2978;42.012;24.880;2023-01-28T11:23:36;5.43;;;3.07;;
5904;SDS011;2978;42.012;24.880;2023-01-28T11:26:14;4.63;;;2.30;;
5904;SDS011;2978;42.012;24.880;2023-01-28T11:28:43;3.33;;;2.77;;
5904;SDS011;2978;42.012;24.880;2023-01-28T11:31:10;4.87;;;2.60;;
5904;SDS011;2978;42.012;24.880;2023-01-28T11:33:42;4.67;;;3.37;;
5904;SDS011;2978;42.012;24.880;2023-01-28T11:38:48;3.53;;;2.43;;
5904;SDS011;2978;42.012;24.880;2023-01-28T11:41:16;8.13;;;3.30;;
5904;SDS011;2978;42.012;24.880;2023-01-28T11:43:43;9.80;;;3.27;;
5904;SDS011;2978;42.012;24.880;2023-01-28T11:48:51;9.07;;;3.10;;
5904;SDS011;2978;42.012;24.880;2023-01-28T12:05:32;5.70;;;3.60;;
5904;SDS011;2978;42.012;24.880;2023-01-28T12:11:12;5.87;;;2.50;;
5904;SDS011;2978;42.012;24.880;2023-01-28T12:13:45;4.50;;;3.50;;
5904;SDS011;2978;42.012;24.880;2023-01-28T12:16:16;5.97;;;3.30;;
5904;SDS011;2978;42.012;24.880;2023-01-28T12:38:07;3.50;;;3.20;;
5904;SDS011;2978;42.012;24.880;2023-01-28T12:46:25;3.10;;;2.80;;
5904;SDS011;2978;42.012;24.880;2023-01-28T12:49:18;3.33;;;2.80;;
5904;SDS011;2978;42.012;24.880;2023-01-28T12:57:47;4.30;;;3.50;;
5904;SDS011;2978;42.012;24.880;2023-01-28T13:05:47;3.63;;;3.30;;
5904;SDS011;2978;42.012;24.880;2023-01-28T13:08:22;3.00;;;2.80;;
5904;SDS011;2978;42.012;24.880;2023-01-28T13:10:50;2.70;;;2.43;;
5904;SDS011;2978;42.012;24.880;2023-01-28T13:13:33;3.30;;;3.00;;
5904;SDS011;2978;42.012;24.880;2023-01-28T13:16:01;6.33;;;3.40;;
5904;SDS011;2978;42.012;24.880;2023-01-28T13:21:28;8.03;;;3.10;;
5904;SDS011;2978;42.012;24.880;2023-01-28T13:29:07;5.03;;;3.80;;
5904;SDS011;2978;42.012;24.880;2023-01-28T13:31:39;5.37;;;4.20;;
5904;SDS011;2978;42.012;24.880;2023-01-28T13:34:07;4.90;;;4.00;;
5904;SDS011;2978;42.012;24.880;2023-01-28T13:36:49;3.90;;;3.33;;
5904;SDS011;2978;42.012;24.880;2023-01-28T13:44:20;4.87;;;3.90;;
5904;SDS011;2978;42.012;24.880;2023-01-28T13:49:37;5.60;;;4.27;;
5904;SDS011;2978;42.012;24.880;2023-01-28T13:54:37;3.80;;;3.17;;
5904;SDS011;2978;42.012;24.880;2023-01-28T14:14:35;6.10;;;4.00;;
5904;SDS011;2978;42.012;24.880;2023-01-28T14:19:46;5.53;;;4.40;;
5904;SDS011;2978;42.012;24.880;2023-01-28T14:22:16;5.33;;;4.80;;
5904;SDS011;2978;42.012;24.880;2023-01-28T14:24:43;5.50;;;4.90;;
5904;SDS011;2978;42.012;24.880;2023-01-28T14:32:43;7.17;;;4.77;;
5904;SDS011;2978;42.012;24.880;2023-01-28T14:35:11;9.80;;;5.00;;
5904;SDS011;2978;42.012;24.880;2023-01-28T14:37:43;5.97;;;5.00;;
5904;SDS011;2978;42.012;24.880;2023-01-28T14:40:16;6.03;;;4.90;;
5904;SDS011;2978;42.012;24.880;2023-01-28T14:42:43;5.60;;;5.10;;
5904;SDS011;2978;42.012;24.880;2023-01-28T14:58:26;4.20;;;3.53;;
5904;SDS011;2978;42.012;24.880;2023-01-28T15:00:56;12.93;;;8.07;;
5904;SDS011;2978;42.012;24.880;2023-01-28T15:03:23;25.13;;;9.40;;
5904;SDS011;2978;42.012;24.880;2023-01-28T15:05:59;10.40;;;4.80;;
5904;SDS011;2978;42.012;24.880;2023-01-28T15:08:30;5.33;;;4.77;;
5904;SDS011;2978;42.012;24.880;2023-01-28T15:10:56;5.83;;;4.90;;
5904;SDS011;2978;42.012;24.880;2023-01-28T15:13:25;3.97;;;3.40;;
5904;SDS011;2978;42.012;24.880;2023-01-28T15:15:58;5.07;;;4.57;;
5904;SDS011;2978;42.012;24.880;2023-01-28T15:18:39;5.77;;;4.07;;
5904;SDS011;2978;42.012;24.880;2023-01-28T15:21:07;3.60;;;3.27;;
5904;SDS011;2978;42.012;24.880;2023-01-28T15:23:34;3.57;;;3.27;;
5904;SDS011;2978;42.012;24.880;2023-01-28T15:26:20;3.57;;;3.00;;
5904;SDS011;2978;42.012;24.880;2023-01-28T15:28:47;5.70;;;3.47;;
5904;SDS011;2978;42.012;24.880;2023-01-28T15:31:31;4.00;;;3.20;;
5904;SDS011;2978;42.012;24.880;2023-01-28T15:33:59;7.50;;;4.00;;
5904;SDS011;2978;42.012;24.880;2023-01-28T15:36:28;3.80;;;3.50;;
5904;SDS011;2978;42.012;24.880;2023-01-28T15:38:55;4.80;;;4.20;;
5904;SDS011;2978;42.012;24.880;2023-01-28T15:41:43;7.63;;;4.90;;
5904;SDS011;2978;42.012;24.880;2023-01-28T15:44:15;6.17;;;4.90;;
5904;SDS011;2978;42.012;24.880;2023-01-28T15:46:53;4.30;;;3.80;;
5904;SDS011;2978;42.012;24.880;2023-01-28T15:49:24;9.80;;;4.57;;
5904;SDS011;2978;42.012;24.880;2023-01-28T15:51:53;15.73;;;7.20;;
5904;SDS011;2978;42.012;24.880;2023-01-28T15:54:18;9.87;;;6.90;;
5904;SDS011;2978;42.012;24.880;2023-01-28T15:56:44;5.93;;;4.60;;
5904;SDS011;2978;42.012;24.880;2023-01-28T15:59:17;4.70;;;4.30;;
5904;SDS011;2978;42.012;24.880;2023-01-28T16:01:50;5.20;;;4.63;;
5904;SDS011;2978;42.012;24.880;2023-01-28T16:04:21;5.60;;;4.23;;
5904;SDS011;2978;42.012;24.880;2023-01-28T16:06:51;8.23;;;4.00;;
5904;SDS011;2978;42.012;24.880;2023-01-28T16:09:30;6.40;;;5.37;;
5904;SDS011;2978;42.012;24.880;2023-01-28T16:12:01;5.20;;;4.70;;
5904;SDS011;2978;42.012;24.880;2023-01-28T16:14:40;9.97;;;3.70;;
5904;SDS011;2978;42.012;24.880;2023-01-28T16:17:08;5.60;;;4.40;;
5904;SDS011;2978;42.012;24.880;2023-01-28T16:19:41;5.90;;;4.27;;
5904;SDS011;2978;42.012;24.880;2023-01-28T16:22:19;4.53;;;4.00;;
5904;SDS011;2978;42.012;24.880;2023-01-28T16:24:47;3.80;;;3.50;;
5904;SDS011;2978;42.012;24.880;2023-01-28T16:29:43;7.90;;;4.50;;
5904;SDS011;2978;42.012;24.880;2023-01-28T16:35:13;6.73;;;5.97;;
5904;SDS011;2978;42.012;24.880;2023-01-28T16:37:52;5.63;;;5.13;;
5904;SDS011;2978;42.012;24.880;2023-01-28T16:40:23;5.67;;;5.17;;
5904;SDS011;2978;42.012;24.880;2023-01-28T16:42:49;10.50;;;7.10;;
5904;SDS011;2978;42.012;24.880;2023-01-28T16:45:22;8.60;;;6.00;;
5904;SDS011;2978;42.012;24.880;2023-01-28T16:47:49;6.47;;;5.87;;
5904;SDS011;2978;42.012;24.880;2023-01-28T16:50:15;10.77;;;7.20;;
5904;SDS011;2978;42.012;24.880;2023-01-28T16:52:42;12.07;;;7.23;;
5904;SDS011;2978;42.012;24.880;2023-01-28T16:55:12;7.30;;;5.70;;
5904;SDS011;2978;42.012;24.880;2023-01-28T16:57:43;8.30;;;5.30;;
5904;SDS011;2978;42.012;24.880;2023-01-28T17:00:30;13.13;;;5.83;;
5904;SDS011;2978;42.012;24.880;2023-01-28T17:02:57;10.87;;;6.37;;
5904;SDS011;2978;42.012;24.880;2023-01-28T17:05:22;10.00;;;7.23;;
5904;SDS011;2978;42.012;24.880;2023-01-28T17:07:48;15.57;;;8.80;;
5904;SDS011;2978;42.012;24.880;2023-01-28T17:10:15;12.27;;;8.83;;
5904;SDS011;2978;42.012;24.880;2023-01-28T17:12:41;14.23;;;8.60;;
5904;SDS011;2978;42.012;24.880;2023-01-28T17:15:07;11.53;;;8.47;;
5904;SDS011;2978;42.012;24.880;2023-01-28T17:17:33;13.60;;;9.93;;
5904;SDS011;2978;42.012;24.880;2023-01-28T17:19:59;17.90;;;9.57;;
5904;SDS011;2978;42.012;24.880;2023-01-28T17:22:24;16.90;;;10.63;;
5904;SDS011;2978;42.012;24.880;2023-01-28T17:24:50;15.93;;;10.10;;
5904;SDS011;2978;42.012;24.880;2023-01-28T17:27:15;16.27;;;9.20;;
5904;SDS011;2978;42.012;24.880;2023-01-28T17:29:40;15.73;;;10.37;;
5904;SDS011;2978;42.012;24.880;2023-01-28T17:32:06;115.13;;;67.33;;
5904;SDS011;2978;42.012;24.880;2023-01-28T17:34:31;116.40;;;44.53;;
5904;SDS011;2978;42.012;24.880;2023-01-28T17:36:57;55.27;;;32.60;;
5904;SDS011;2978;42.012;24.880;2023-01-28T17:39:22;20.87;;;10.40;;
5904;SDS011;2978;42.012;24.880;2023-01-28T17:41:48;22.63;;;12.43;;
5904;SDS011;2978;42.012;24.880;2023-01-28T17:44:16;20.23;;;8.17;;
5904;SDS011;2978;42.012;24.880;2023-01-28T17:46:42;8.20;;;6.20;;
5904;SDS011;2978;42.012;24.880;2023-01-28T17:49:07;6.37;;;4.30;;
5904;SDS011;2978;42.012;24.880;2023-01-28T17:51:33;12.63;;;7.63;;
5904;SDS011;2978;42.012;24.880;2023-01-28T17:53:58;12.20;;;5.33;;
5904;SDS011;2978;42.012;24.880;2023-01-28T17:56:24;17.40;;;7.37;;
5904;SDS011;2978;42.012;24.880;2023-01-28T17:58:55;11.87;;;8.67;;
5904;SDS011;2978;42.012;24.880;2023-01-28T18:01:32;14.20;;;8.90;;
5904;SDS011;2978;42.012;24.880;2023-01-28T18:04:01;12.20;;;6.93;;
5904;SDS011;2978;42.012;24.880;2023-01-28T18:06:30;9.53;;;6.30;;
5904;SDS011;2978;42.012;24.880;2023-01-28T18:08:57;8.30;;;5.50;;